Pagina principale
METAR-TAF:

METAR-TAF

Aeroporti :

Aeroporto di Osijek-Klisa

Osijek, Croazia

latitudine: 45-27N, longitudine: 018-48E, altezza: 88 m

Osservazione

Il bollettino è stato emesso 6 ore e 26 minuti fa, alle 05:30 UTC
Vento 1 kt da direzioni variabili
Temperature 19°C
Umidità 88%
Pressione 1016 hPa
Visibilità 10 km o più
nessuna nube inferiore a 1500 m e nessun cumulonembo

METAR: LDOS 210530Z VRB01KT CAVOK 19/17 Q1016

Ora: 13:56 (11:56 UTC)

Previsione

Il bollettino è stato emesso 6 ore e 31 minuti fa, alle 05:25 UTC
Previsione valida dal 21 alle 06 UTC al 22 alle 06 UTC
Vento 6 kt da nord
Visibilità 10 km o più
nessuna nube inferiore a 1500 m e nessun cumulonembo
Probabilità 40% :
Temporaneamente
dal 21 alle 13 UTC al 21 alle 17 UTC
Poco nuvoloso ad un'altezza di 4000 ft, Cumulonembo.
Nubi sparse ad un'altezza di 5000 ft
temporale, pioggia debole

TAF: LDOS 210525Z 2106/2206 01006KT CAVOK TX33/2113Z TN17/2203Z PROB40 TEMPO 2113/2117 -TSRA FEW040CB SCT050

Osservazioni e previsioni meteorologiche di più di 4000 aeroporti (messaggi METAR e TAF).

Le stazioni disponibili sono rappresentate dai dischi gialli e rossi sulla carta.

Puntare il mouse per vedere il nome della stazione.

Clicca sopra per visualizzare le osservazioni e previsioni meteorologiche.

Per cambiare la mappa : fare clic sui pulsanti verdi con una croce nera per ingrandire, il pulsante verde con un trattino per diminuire, o sulla freccia verde per le mappe adiacenti.


METAR-TAF: